sensor_id;sensor_type;location;lat;lon;timestamp;pressure;altitude;pressure_sealevel;temperature;humidity
17521;BME280;8878;-33.370;-70.552;2023-08-31T00:00:09;92425.47;;;13.22;100.00
17521;BME280;8878;-33.370;-70.552;2023-08-31T00:02:39;92418.63;;;13.21;100.00
17521;BME280;8878;-33.370;-70.552;2023-08-31T00:05:09;92413.84;;;13.18;100.00
17521;BME280;8878;-33.370;-70.552;2023-08-31T00:07:39;92417.84;;;13.16;100.00
17521;BME280;8878;-33.370;-70.552;2023-08-31T00:10:09;92420.22;;;13.12;100.00
17521;BME280;8878;-33.370;-70.552;2023-08-31T00:12:40;92413.66;;;13.05;100.00
17521;BME280;8878;-33.370;-70.552;2023-08-31T00:15:10;92418.19;;;12.99;100.00
17521;BME280;8878;-33.370;-70.552;2023-08-31T00:17:40;92414.75;;;12.93;100.00
17521;BME280;8878;-33.370;-70.552;2023-08-31T00:20:10;92401.31;;;12.85;100.00
17521;BME280;8878;-33.370;-70.552;2023-08-31T00:22:40;92408.47;;;12.79;100.00
17521;BME280;8878;-33.370;-70.552;2023-08-31T00:25:10;92399.50;;;12.75;100.00
17521;BME280;8878;-33.370;-70.552;2023-08-31T00:27:42;92412.72;;;12.75;100.00
17521;BME280;8878;-33.370;-70.552;2023-08-31T00:30:14;92402.19;;;12.65;100.00
17521;BME280;8878;-33.370;-70.552;2023-08-31T00:32:43;92405.13;;;12.59;100.00
17521;BME280;8878;-33.370;-70.552;2023-08-31T00:35:14;92408.84;;;12.52;100.00
17521;BME280;8878;-33.370;-70.552;2023-08-31T00:37:44;92403.81;;;12.51;100.00
17521;BME280;8878;-33.370;-70.552;2023-08-31T00:40:13;92403.09;;;12.40;100.00
17521;BME280;8878;-33.370;-70.552;2023-08-31T00:43:29;92398.31;;;12.37;100.00
17521;BME280;8878;-33.370;-70.552;2023-08-31T00:46:15;92395.69;;;12.32;100.00
17521;BME280;8878;-33.370;-70.552;2023-08-31T00:48:45;92395.72;;;12.22;100.00
17521;BME280;8878;-33.370;-70.552;2023-08-31T00:51:15;92386.25;;;12.11;100.00
17521;BME280;8878;-33.370;-70.552;2023-08-31T00:53:44;92388.13;;;11.95;100.00
17521;BME280;8878;-33.370;-70.552;2023-08-31T00:56:16;92390.50;;;11.97;100.00
17521;BME280;8878;-33.370;-70.552;2023-08-31T00:59:19;92395.53;;;11.98;100.00
17521;BME280;8878;-33.370;-70.552;2023-08-31T01:01:51;92397.94;;;11.90;100.00
17521;BME280;8878;-33.370;-70.552;2023-08-31T01:04:34;92398.19;;;11.93;100.00
17521;BME280;8878;-33.370;-70.552;2023-08-31T01:07:15;92404.28;;;11.89;100.00
17521;BME280;8878;-33.370;-70.552;2023-08-31T01:09:54;92398.47;;;11.82;100.00
17521;BME280;8878;-33.370;-70.552;2023-08-31T01:12:32;92400.56;;;11.80;100.00
17521;BME280;8878;-33.370;-70.552;2023-08-31T01:15:09;92396.31;;;11.73;100.00
17521;BME280;8878;-33.370;-70.552;2023-08-31T01:17:43;92402.69;;;11.67;100.00
17521;BME280;8878;-33.370;-70.552;2023-08-31T01:20:15;92397.66;;;11.61;100.00
17521;BME280;8878;-33.370;-70.552;2023-08-31T01:22:55;92407.19;;;11.57;100.00
17521;BME280;8878;-33.370;-70.552;2023-08-31T01:25:28;92407.97;;;11.47;100.00
17521;BME280;8878;-33.370;-70.552;2023-08-31T01:27:59;92399.50;;;11.10;100.00
17521;BME280;8878;-33.370;-70.552;2023-08-31T01:30:30;92395.00;;;11.05;100.00
17521;BME280;8878;-33.370;-70.552;2023-08-31T01:33:00;92393.69;;;11.18;100.00
17521;BME280;8878;-33.370;-70.552;2023-08-31T01:35:32;92405.31;;;11.27;100.00
17521;BME280;8878;-33.370;-70.552;2023-08-31T01:38:06;92410.63;;;11.27;100.00
17521;BME280;8878;-33.370;-70.552;2023-08-31T01:40:43;92409.03;;;11.21;100.00
17521;BME280;8878;-33.370;-70.552;2023-08-31T01:43:14;92412.44;;;11.16;100.00
17521;BME280;8878;-33.370;-70.552;2023-08-31T01:45:45;92410.59;;;11.12;100.00
17521;BME280;8878;-33.370;-70.552;2023-08-31T01:48:16;92416.38;;;10.98;100.00
17521;BME280;8878;-33.370;-70.552;2023-08-31T01:50:45;92416.91;;;10.95;100.00
17521;BME280;8878;-33.370;-70.552;2023-08-31T01:53:15;92404.53;;;11.01;100.00
17521;BME280;8878;-33.370;-70.552;2023-08-31T01:55:47;92411.91;;;11.04;100.00
17521;BME280;8878;-33.370;-70.552;2023-08-31T01:58:17;92411.09;;;11.04;100.00
17521;BME280;8878;-33.370;-70.552;2023-08-31T02:00:46;92413.75;;;11.04;100.00
17521;BME280;8878;-33.370;-70.552;2023-08-31T02:03:15;92401.59;;;11.03;100.00
17521;BME280;8878;-33.370;-70.552;2023-08-31T02:05:46;92402.38;;;11.03;100.00
17521;BME280;8878;-33.370;-70.552;2023-08-31T02:08:15;92398.94;;;10.97;100.00
17521;BME280;8878;-33.370;-70.552;2023-08-31T02:10:48;92397.06;;;10.88;100.00
17521;BME280;8878;-33.370;-70.552;2023-08-31T02:13:17;92406.34;;;10.95;100.00
17521;BME280;8878;-33.370;-70.552;2023-08-31T02:15:47;92406.34;;;10.95;100.00
17521;BME280;8878;-33.370;-70.552;2023-08-31T02:18:21;92395.78;;;10.95;100.00
17521;BME280;8878;-33.370;-70.552;2023-08-31T02:20:52;92395.25;;;10.98;100.00
17521;BME280;8878;-33.370;-70.552;2023-08-31T02:23:22;92392.09;;;10.96;100.00
17521;BME280;8878;-33.370;-70.552;2023-08-31T02:25:53;92395.50;;;11.02;100.00
17521;BME280;8878;-33.370;-70.552;2023-08-31T02:28:23;92383.66;;;11.05;100.00
17521;BME280;8878;-33.370;-70.552;2023-08-31T02:30:58;92382.06;;;10.98;100.00
17521;BME280;8878;-33.370;-70.552;2023-08-31T02:33:28;92377.53;;;10.79;100.00
17521;BME280;8878;-33.370;-70.552;2023-08-31T02:35:58;92380.94;;;10.74;100.00
17521;BME280;8878;-33.370;-70.552;2023-08-31T02:38:28;92375.66;;;10.69;100.00
17521;BME280;8878;-33.370;-70.552;2023-08-31T02:40:59;92373.56;;;10.76;100.00
17521;BME280;8878;-33.370;-70.552;2023-08-31T02:43:29;92364.59;;;10.82;100.00
17521;BME280;8878;-33.370;-70.552;2023-08-31T02:46:02;92364.34;;;10.84;100.00
17521;BME280;8878;-33.370;-70.552;2023-08-31T02:48:33;92364.59;;;10.82;100.00
17521;BME280;8878;-33.370;-70.552;2023-08-31T02:51:02;92359.34;;;10.77;100.00
17521;BME280;8878;-33.370;-70.552;2023-08-31T02:53:32;92366.72;;;10.75;100.00
17521;BME280;8878;-33.370;-70.552;2023-08-31T02:56:03;92373.03;;;10.74;100.00
17521;BME280;8878;-33.370;-70.552;2023-08-31T02:58:33;92371.19;;;10.65;100.00
17521;BME280;8878;-33.370;-70.552;2023-08-31T03:01:08;92364.06;;;10.65;100.00
17521;BME280;8878;-33.370;-70.552;2023-08-31T03:03:39;92365.13;;;10.69;100.00
17521;BME280;8878;-33.370;-70.552;2023-08-31T03:06:09;92359.81;;;10.59;100.00
17521;BME280;8878;-33.370;-70.552;2023-08-31T03:08:38;92358.25;;;10.58;100.00
17521;BME280;8878;-33.370;-70.552;2023-08-31T03:11:10;92354.53;;;10.54;100.00
17521;BME280;8878;-33.370;-70.552;2023-08-31T03:13:41;92369.28;;;10.50;100.00
17521;BME280;8878;-33.370;-70.552;2023-08-31T03:16:10;92357.66;;;10.41;100.00
17521;BME280;8878;-33.370;-70.552;2023-08-31T03:18:40;92363.97;;;10.40;100.00
17521;BME280;8878;-33.370;-70.552;2023-08-31T03:21:09;92369.78;;;10.37;100.00
17521;BME280;8878;-33.370;-70.552;2023-08-31T03:23:40;92368.16;;;10.31;100.00
17521;BME280;8878;-33.370;-70.552;2023-08-31T03:26:11;92365.78;;;10.29;100.00
17521;BME280;8878;-33.370;-70.552;2023-08-31T03:28:40;92364.72;;;10.30;100.00
17521;BME280;8878;-33.370;-70.552;2023-08-31T03:31:10;92367.66;;;10.34;100.00
17521;BME280;8878;-33.370;-70.552;2023-08-31T03:33:41;92365.00;;;10.34;100.00
17521;BME280;8878;-33.370;-70.552;2023-08-31T03:36:11;92357.91;;;10.34;100.00
17521;BME280;8878;-33.370;-70.552;2023-08-31T03:38:42;92364.22;;;10.33;100.00
17521;BME280;8878;-33.370;-70.552;2023-08-31T03:41:13;92358.13;;;10.28;100.00
17521;BME280;8878;-33.370;-70.552;2023-08-31T03:43:42;92352.56;;;10.19;100.00
17521;BME280;8878;-33.370;-70.552;2023-08-31T03:46:13;92347.97;;;9.99;100.00
17521;BME280;8878;-33.370;-70.552;2023-08-31T03:48:43;92345.84;;;9.96;100.00
17521;BME280;8878;-33.370;-70.552;2023-08-31T03:51:12;92337.19;;;10.06;100.00
17521;BME280;8878;-33.370;-70.552;2023-08-31T03:53:42;92332.72;;;10.06;100.00
17521;BME280;8878;-33.370;-70.552;2023-08-31T03:56:13;92333.75;;;10.05;100.00
17521;BME280;8878;-33.370;-70.552;2023-08-31T03:58:43;92322.69;;;10.03;100.00
17521;BME280;8878;-33.370;-70.552;2023-08-31T04:01:12;92325.78;;;9.90;100.00
17521;BME280;8878;-33.370;-70.552;2023-08-31T04:03:43;92314.91;;;9.71;100.00
17521;BME280;8878;-33.370;-70.552;2023-08-31T04:06:12;92321.16;;;9.60;100.00
17521;BME280;8878;-33.370;-70.552;2023-08-31T04:08:44;92311.41;;;9.61;100.00
17521;BME280;8878;-33.370;-70.552;2023-08-31T04:11:15;92302.78;;;9.70;100.00
17521;BME280;8878;-33.370;-70.552;2023-08-31T04:13:44;92309.41;;;9.83;100.00
17521;BME280;8878;-33.370;-70.552;2023-08-31T04:16:14;92310.78;;;9.91;100.00
17521;BME280;8878;-33.370;-70.552;2023-08-31T04:18:43;92323.97;;;9.96;100.00
17521;BME280;8878;-33.370;-70.552;2023-08-31T04:21:19;92318.97;;;9.94;100.00
17521;BME280;8878;-33.370;-70.552;2023-08-31T04:23:49;92310.00;;;9.95;100.00
17521;BME280;8878;-33.370;-70.552;2023-08-31T04:26:21;92314.75;;;9.98;100.00
17521;BME280;8878;-33.370;-70.552;2023-08-31T04:28:51;92307.44;;;10.15;100.00
17521;BME280;8878;-33.370;-70.552;2023-08-31T04:31:20;92305.31;;;10.12;100.00
17521;BME280;8878;-33.370;-70.552;2023-08-31T04:33:50;92309.53;;;10.13;100.00
17521;BME280;8878;-33.370;-70.552;2023-08-31T04:36:21;92316.41;;;10.14;100.00
17521;BME280;8878;-33.370;-70.552;2023-08-31T04:38:50;92308.69;;;10.03;100.00
17521;BME280;8878;-33.370;-70.552;2023-08-31T04:41:21;92320.59;;;10.05;100.00
17521;BME280;8878;-33.370;-70.552;2023-08-31T04:43:51;92322.16;;;10.06;100.00
17521;BME280;8878;-33.370;-70.552;2023-08-31T04:46:21;92325.84;;;10.00;100.00
17521;BME280;8878;-33.370;-70.552;2023-08-31T04:48:50;92320.84;;;10.04;100.00
17521;BME280;8878;-33.370;-70.552;2023-08-31T04:51:30;92313.16;;;9.97;100.00
17521;BME280;8878;-33.370;-70.552;2023-08-31T04:54:00;92316.34;;;9.94;100.00
17521;BME280;8878;-33.370;-70.552;2023-08-31T04:56:32;92318.94;;;9.89;100.00
17521;BME280;8878;-33.370;-70.552;2023-08-31T04:59:01;92314.94;;;9.81;100.00
17521;BME280;8878;-33.370;-70.552;2023-08-31T05:01:31;92314.13;;;9.81;100.00
17521;BME280;8878;-33.370;-70.552;2023-08-31T05:04:02;92313.63;;;9.79;100.00
17521;BME280;8878;-33.370;-70.552;2023-08-31T05:06:32;92319.16;;;9.77;100.00
17521;BME280;8878;-33.370;-70.552;2023-08-31T05:09:01;92306.22;;;9.76;100.00
17521;BME280;8878;-33.370;-70.552;2023-08-31T05:11:34;92300.94;;;9.76;100.00
17521;BME280;8878;-33.370;-70.552;2023-08-31T05:14:04;92294.88;;;9.70;100.00
17521;BME280;8878;-33.370;-70.552;2023-08-31T05:16:33;92291.94;;;9.67;100.00
17521;BME280;8878;-33.370;-70.552;2023-08-31T05:19:03;92290.63;;;9.64;100.00
17521;BME280;8878;-33.370;-70.552;2023-08-31T05:21:32;92285.06;;;9.61;100.00
17521;BME280;8878;-33.370;-70.552;2023-08-31T05:24:01;92284.00;;;9.57;100.00
17521;BME280;8878;-33.370;-70.552;2023-08-31T05:26:33;92282.66;;;9.49;100.00
17521;BME280;8878;-33.370;-70.552;2023-08-31T05:29:03;92273.94;;;9.43;100.00
17521;BME280;8878;-33.370;-70.552;2023-08-31T05:31:33;92266.03;;;9.43;100.00
17521;BME280;8878;-33.370;-70.552;2023-08-31T05:34:03;92276.28;;;9.45;100.00
17521;BME280;8878;-33.370;-70.552;2023-08-31T05:36:32;92266.59;;;9.51;100.00
17521;BME280;8878;-33.370;-70.552;2023-08-31T05:39:02;92268.94;;;9.47;100.00
17521;BME280;8878;-33.370;-70.552;2023-08-31T05:41:33;92271.31;;;9.49;100.00
17521;BME280;8878;-33.370;-70.552;2023-08-31T05:44:03;92270.78;;;9.47;100.00
17521;BME280;8878;-33.370;-70.552;2023-08-31T05:46:33;92272.50;;;9.26;100.00
17521;BME280;8878;-33.370;-70.552;2023-08-31T05:49:02;92269.63;;;9.27;100.00
17521;BME280;8878;-33.370;-70.552;2023-08-31T05:51:32;92271.72;;;9.25;100.00
17521;BME280;8878;-33.370;-70.552;2023-08-31T05:54:02;92284.28;;;9.18;100.00
17521;BME280;8878;-33.370;-70.552;2023-08-31T05:56:34;92283.25;;;9.19;100.00
17521;BME280;8878;-33.370;-70.552;2023-08-31T05:59:03;92295.38;;;9.20;100.00
17521;BME280;8878;-33.370;-70.552;2023-08-31T06:01:33;92279.59;;;9.20;100.00
17521;BME280;8878;-33.370;-70.552;2023-08-31T06:04:03;92280.38;;;9.21;100.00
17521;BME280;8878;-33.370;-70.552;2023-08-31T06:06:33;92264.81;;;9.14;100.00
17521;BME280;8878;-33.370;-70.552;2023-08-31T06:09:02;92262.03;;;8.94;100.00
17521;BME280;8878;-33.370;-70.552;2023-08-31T06:11:35;92259.91;;;8.91;100.00
17521;BME280;8878;-33.370;-70.552;2023-08-31T06:14:06;92258.28;;;8.85;100.00
17521;BME280;8878;-33.370;-70.552;2023-08-31T06:16:35;92245.50;;;8.98;100.00
17521;BME280;8878;-33.370;-70.552;2023-08-31T06:19:05;92247.88;;;9.00;100.00
17521;BME280;8878;-33.370;-70.552;2023-08-31T06:21:35;92242.59;;;8.95;100.00
17521;BME280;8878;-33.370;-70.552;2023-08-31T06:24:04;92242.00;;;8.88;100.00
17521;BME280;8878;-33.370;-70.552;2023-08-31T06:26:39;92237.03;;;8.91;100.00
17521;BME280;8878;-33.370;-70.552;2023-08-31T06:29:09;92235.78;;;9.04;100.00
17521;BME280;8878;-33.370;-70.552;2023-08-31T06:31:39;92225.91;;;8.84;100.00
17521;BME280;8878;-33.370;-70.552;2023-08-31T06:34:10;92224.78;;;8.70;100.00
17521;BME280;8878;-33.370;-70.552;2023-08-31T06:36:39;92209.44;;;8.62;100.00
17521;BME280;8878;-33.370;-70.552;2023-08-31T06:39:09;92211.63;;;8.70;100.00
17521;BME280;8878;-33.370;-70.552;2023-08-31T06:41:40;92216.75;;;8.87;100.00
17521;BME280;8878;-33.370;-70.552;2023-08-31T06:44:11;92213.13;;;8.98;100.00
17521;BME280;8878;-33.370;-70.552;2023-08-31T06:46:40;92212.28;;;8.87;100.00
17521;BME280;8878;-33.370;-70.552;2023-08-31T06:49:09;92210.47;;;8.93;100.00
17521;BME280;8878;-33.370;-70.552;2023-08-31T06:51:39;92216.78;;;8.92;100.00
17521;BME280;8878;-33.370;-70.552;2023-08-31T06:54:09;92204.16;;;8.94;100.00
17521;BME280;8878;-33.370;-70.552;2023-08-31T06:56:44;92203.13;;;8.95;100.00
17521;BME280;8878;-33.370;-70.552;2023-08-31T06:59:13;92198.56;;;8.85;100.00
17521;BME280;8878;-33.370;-70.552;2023-08-31T07:01:43;92195.16;;;8.90;100.00
17521;BME280;8878;-33.370;-70.552;2023-08-31T07:04:12;92195.47;;;8.93;100.00
17521;BME280;8878;-33.370;-70.552;2023-08-31T07:06:42;92190.44;;;8.87;100.00
17521;BME280;8878;-33.370;-70.552;2023-08-31T07:09:11;92186.22;;;8.86;100.00
17521;BME280;8878;-33.370;-70.552;2023-08-31T07:11:43;92184.16;;;8.93;100.00
17521;BME280;8878;-33.370;-70.552;2023-08-31T07:14:12;92177.22;;;8.82;100.00
17521;BME280;8878;-33.370;-70.552;2023-08-31T07:16:41;92180.31;;;8.69;100.00
17521;BME280;8878;-33.370;-70.552;2023-08-31T07:19:11;92173.66;;;8.56;100.00
17521;BME280;8878;-33.370;-70.552;2023-08-31T07:21:41;92164.94;;;8.50;100.00
17521;BME280;8878;-33.370;-70.552;2023-08-31T07:24:10;92164.38;;;8.43;100.00
17521;BME280;8878;-33.370;-70.552;2023-08-31T07:26:40;92155.34;;;8.34;100.00
17521;BME280;8878;-33.370;-70.552;2023-08-31T07:29:11;92145.16;;;8.43;100.00
17521;BME280;8878;-33.370;-70.552;2023-08-31T07:31:41;92131.31;;;8.52;100.00
17521;BME280;8878;-33.370;-70.552;2023-08-31T07:34:11;92142.88;;;8.56;100.00
17521;BME280;8878;-33.370;-70.552;2023-08-31T07:36:40;92132.13;;;8.58;100.00
17521;BME280;8878;-33.370;-70.552;2023-08-31T07:39:10;92122.41;;;8.63;100.00
17521;BME280;8878;-33.370;-70.552;2023-08-31T07:41:40;92120.59;;;8.69;100.00
17521;BME280;8878;-33.370;-70.552;2023-08-31T07:44:11;92106.97;;;8.77;100.00
17521;BME280;8878;-33.370;-70.552;2023-08-31T07:46:40;92102.50;;;8.73;100.00
17521;BME280;8878;-33.370;-70.552;2023-08-31T07:49:10;92110.31;;;8.62;100.00
17521;BME280;8878;-33.370;-70.552;2023-08-31T07:51:39;92098.72;;;8.58;100.00
17521;BME280;8878;-33.370;-70.552;2023-08-31T07:54:09;92098.41;;;8.45;100.00
17521;BME280;8878;-33.370;-70.552;2023-08-31T07:56:38;92091.88;;;8.57;100.00
17521;BME280;8878;-33.370;-70.552;2023-08-31T07:59:10;92083.78;;;8.64;100.00
17521;BME280;8878;-33.370;-70.552;2023-08-31T08:01:41;92089.72;;;8.49;100.00
17521;BME280;8878;-33.370;-70.552;2023-08-31T08:04:11;92083.44;;;8.50;100.00
17521;BME280;8878;-33.370;-70.552;2023-08-31T08:06:40;92092.06;;;8.46;100.00
17521;BME280;8878;-33.370;-70.552;2023-08-31T08:09:10;92087.13;;;8.54;100.00
17521;BME280;8878;-33.370;-70.552;2023-08-31T08:11:41;92093.19;;;8.60;100.00
17521;BME280;8878;-33.370;-70.552;2023-08-31T08:14:12;92099.56;;;8.64;100.00
17521;BME280;8878;-33.370;-70.552;2023-08-31T08:16:42;92097.84;;;8.43;100.00
17521;BME280;8878;-33.370;-70.552;2023-08-31T08:19:11;92101.75;;;8.35;100.00
17521;BME280;8878;-33.370;-70.552;2023-08-31T08:21:41;92099.94;;;8.46;100.00
17521;BME280;8878;-33.370;-70.552;2023-08-31T08:24:11;92094.50;;;8.52;100.00
17521;BME280;8878;-33.370;-70.552;2023-08-31T08:26:41;92085.84;;;8.57;100.00
17521;BME280;8878;-33.370;-70.552;2023-08-31T08:29:12;92083.47;;;8.60;100.00
17521;BME280;8878;-33.370;-70.552;2023-08-31T08:31:42;92078.75;;;8.62;100.00
17521;BME280;8878;-33.370;-70.552;2023-08-31T08:34:12;92070.06;;;8.62;100.00
17521;BME280;8878;-33.370;-70.552;2023-08-31T08:36:42;92063.53;;;8.64;100.00
17521;BME280;8878;-33.370;-70.552;2023-08-31T08:39:11;92061.66;;;8.60;100.00
17521;BME280;8878;-33.370;-70.552;2023-08-31T08:41:42;92061.75;;;8.33;100.00
17521;BME280;8878;-33.370;-70.552;2023-08-31T08:44:15;92070.97;;;8.31;100.00
17521;BME280;8878;-33.370;-70.552;2023-08-31T08:46:47;92069.03;;;8.21;100.00
17521;BME280;8878;-33.370;-70.552;2023-08-31T08:49:18;92065.13;;;8.29;100.00
17521;BME280;8878;-33.370;-70.552;2023-08-31T08:51:47;92059.69;;;8.35;100.00
17521;BME280;8878;-33.370;-70.552;2023-08-31T08:54:18;92064.09;;;8.30;100.00
17521;BME280;8878;-33.370;-70.552;2023-08-31T08:56:47;92062.81;;;8.32;100.00
17521;BME280;8878;-33.370;-70.552;2023-08-31T08:59:18;92064.59;;;8.26;100.00
17521;BME280;8878;-33.370;-70.552;2023-08-31T09:01:48;92076.94;;;8.26;100.00
17521;BME280;8878;-33.370;-70.552;2023-08-31T09:04:19;92066.94;;;8.23;100.00
17521;BME280;8878;-33.370;-70.552;2023-08-31T09:06:50;92063.09;;;8.36;100.00
17521;BME280;8878;-33.370;-70.552;2023-08-31T09:09:21;92055.75;;;8.38;100.00
17521;BME280;8878;-33.370;-70.552;2023-08-31T09:11:50;92061.28;;;8.36;100.00
17521;BME280;8878;-33.370;-70.552;2023-08-31T09:14:21;92051.34;;;8.48;100.00
17521;BME280;8878;-33.370;-70.552;2023-08-31T09:16:51;92049.25;;;8.50;100.00
17521;BME280;8878;-33.370;-70.552;2023-08-31T09:19:22;92045.03;;;8.49;100.00
17521;BME280;8878;-33.370;-70.552;2023-08-31T09:21:55;92038.72;;;8.45;100.00
17521;BME280;8878;-33.370;-70.552;2023-08-31T09:24:24;92042.91;;;8.46;100.00
17521;BME280;8878;-33.370;-70.552;2023-08-31T09:26:57;92035.53;;;8.38;100.00
17521;BME280;8878;-33.370;-70.552;2023-08-31T09:29:30;92032.34;;;8.31;100.00
17521;BME280;8878;-33.370;-70.552;2023-08-31T09:32:01;92045.63;;;8.24;100.00
17521;BME280;8878;-33.370;-70.552;2023-08-31T09:34:34;92046.44;;;8.25;100.00
17521;BME280;8878;-33.370;-70.552;2023-08-31T09:37:09;92048.16;;;8.41;100.00
17521;BME280;8878;-33.370;-70.552;2023-08-31T09:39:39;92039.00;;;8.54;100.00
17521;BME280;8878;-33.370;-70.552;2023-08-31T09:42:08;92043.94;;;8.40;100.00
17521;BME280;8878;-33.370;-70.552;2023-08-31T09:44:43;92035.44;;;8.28;100.00
17521;BME280;8878;-33.370;-70.552;2023-08-31T09:47:14;92030.66;;;8.20;100.00
17521;BME280;8878;-33.370;-70.552;2023-08-31T09:49:44;92026.72;;;8.22;100.00
17521;BME280;8878;-33.370;-70.552;2023-08-31T09:52:15;92026.66;;;8.12;100.00
17521;BME280;8878;-33.370;-70.552;2023-08-31T09:54:46;92014.31;;;8.13;100.00
17521;BME280;8878;-33.370;-70.552;2023-08-31T09:57:18;92010.16;;;8.22;100.00
17521;BME280;8878;-33.370;-70.552;2023-08-31T09:59:50;92007.91;;;8.36;100.00
17521;BME280;8878;-33.370;-70.552;2023-08-31T10:02:20;92000.56;;;8.43;100.00
17521;BME280;8878;-33.370;-70.552;2023-08-31T10:04:50;91996.91;;;8.44;100.00
17521;BME280;8878;-33.370;-70.552;2023-08-31T10:07:21;92002.47;;;8.10;100.00
17521;BME280;8878;-33.370;-70.552;2023-08-31T10:09:51;91998.06;;;8.16;100.00
17521;BME280;8878;-33.370;-70.552;2023-08-31T10:12:21;91995.81;;;7.98;100.00
17521;BME280;8878;-33.370;-70.552;2023-08-31T10:14:54;91996.47;;;8.15;100.00
17521;BME280;8878;-33.370;-70.552;2023-08-31T10:17:25;91994.66;;;8.20;100.00
17521;BME280;8878;-33.370;-70.552;2023-08-31T10:19:55;91995.03;;;8.39;100.00
17521;BME280;8878;-33.370;-70.552;2023-08-31T10:22:25;91995.88;;;8.50;100.00
17521;BME280;8878;-33.370;-70.552;2023-08-31T10:24:59;91989.34;;;8.57;100.00
17521;BME280;8878;-33.370;-70.552;2023-08-31T10:27:36;91991.72;;;8.59;100.00
17521;BME280;8878;-33.370;-70.552;2023-08-31T10:30:26;91990.88;;;8.53;100.00
17521;BME280;8878;-33.370;-70.552;2023-08-31T10:33:23;92005.66;;;8.64;100.00
17521;BME280;8878;-33.370;-70.552;2023-08-31T10:35:54;92025.91;;;8.64;100.00
17521;BME280;8878;-33.370;-70.552;2023-08-31T10:38:29;92041.38;;;8.55;100.00
17521;BME280;8878;-33.370;-70.552;2023-08-31T10:41:03;92043.19;;;8.45;100.00
17521;BME280;8878;-33.370;-70.552;2023-08-31T10:43:49;92054.28;;;8.20;100.00
17521;BME280;8878;-33.370;-70.552;2023-08-31T10:46:26;92050.81;;;8.09;100.00
17521;BME280;8878;-33.370;-70.552;2023-08-31T10:48:56;92045.28;;;8.11;100.00
17521;BME280;8878;-33.370;-70.552;2023-08-31T10:51:27;92043.72;;;8.10;100.00
17521;BME280;8878;-33.370;-70.552;2023-08-31T10:54:19;92021.25;;;8.29;100.00
17521;BME280;8878;-33.370;-70.552;2023-08-31T10:57:04;92012.38;;;8.40;100.00
17521;BME280;8878;-33.370;-70.552;2023-08-31T10:59:51;92011.66;;;8.55;100.00
17521;BME280;8878;-33.370;-70.552;2023-08-31T11:02:34;92024.25;;;8.48;100.00
17521;BME280;8878;-33.370;-70.552;2023-08-31T11:05:07;92030.09;;;8.18;100.00
17521;BME280;8878;-33.370;-70.552;2023-08-31T11:07:37;92032.25;;;8.26;100.00
17521;BME280;8878;-33.370;-70.552;2023-08-31T11:10:09;92038.56;;;8.25;100.00
17521;BME280;8878;-33.370;-70.552;2023-08-31T11:12:40;92051.19;;;8.28;100.00
17521;BME280;8878;-33.370;-70.552;2023-08-31T11:15:12;92060.38;;;8.25;100.00
17521;BME280;8878;-33.370;-70.552;2023-08-31T11:17:44;92067.41;;;8.15;100.00
17521;BME280;8878;-33.370;-70.552;2023-08-31T11:20:14;92076.25;;;8.04;100.00
17521;BME280;8878;-33.370;-70.552;2023-08-31T11:22:47;92072.41;;;8.16;100.00
17521;BME280;8878;-33.370;-70.552;2023-08-31T11:25:21;92086.50;;;8.37;100.00
17521;BME280;8878;-33.370;-70.552;2023-08-31T11:27:57;92088.13;;;8.43;100.00
17521;BME280;8878;-33.370;-70.552;2023-08-31T11:30:30;92086.56;;;8.47;100.00
17521;BME280;8878;-33.370;-70.552;2023-08-31T11:33:05;92088.69;;;8.50;100.00
17521;BME280;8878;-33.370;-70.552;2023-08-31T11:35:36;92092.03;;;8.41;100.00
17521;BME280;8878;-33.370;-70.552;2023-08-31T11:38:08;92107.56;;;8.42;100.00
17521;BME280;8878;-33.370;-70.552;2023-08-31T11:40:38;92108.97;;;8.60;100.00
17521;BME280;8878;-33.370;-70.552;2023-08-31T11:43:08;92104.00;;;8.63;100.00
17521;BME280;8878;-33.370;-70.552;2023-08-31T11:45:38;92108.97;;;8.60;100.00
17521;BME280;8878;-33.370;-70.552;2023-08-31T11:48:11;92125.53;;;8.55;100.00
17521;BME280;8878;-33.370;-70.552;2023-08-31T11:50:41;92136.13;;;8.66;100.00
17521;BME280;8878;-33.370;-70.552;2023-08-31T11:53:11;92145.63;;;8.72;100.00
17521;BME280;8878;-33.370;-70.552;2023-08-31T11:55:50;92146.13;;;8.69;100.00
17521;BME280;8878;-33.370;-70.552;2023-08-31T11:58:20;92146.91;;;8.69;100.00
17521;BME280;8878;-33.370;-70.552;2023-08-31T12:01:01;92156.47;;;8.85;100.00
17521;BME280;8878;-33.370;-70.552;2023-08-31T12:03:43;92148.69;;;9.00;100.00
17521;BME280;8878;-33.370;-70.552;2023-08-31T12:06:16;92127.63;;;9.00;100.00
17521;BME280;8878;-33.370;-70.552;2023-08-31T12:08:46;92127.84;;;8.94;100.00
17521;BME280;8878;-33.370;-70.552;2023-08-31T12:11:15;92120.22;;;8.97;100.00
17521;BME280;8878;-33.370;-70.552;2023-08-31T12:13:45;92115.84;;;9.18;100.00
17521;BME280;8878;-33.370;-70.552;2023-08-31T12:16:14;92108.25;;;9.32;100.00
17521;BME280;8878;-33.370;-70.552;2023-08-31T12:18:46;92091.66;;;9.31;100.00
17521;BME280;8878;-33.370;-70.552;2023-08-31T12:21:15;92089.56;;;9.33;100.00
17521;BME280;8878;-33.370;-70.552;2023-08-31T12:23:48;92086.19;;;9.43;100.00
17521;BME280;8878;-33.370;-70.552;2023-08-31T12:26:17;92084.88;;;9.61;100.00
17521;BME280;8878;-33.370;-70.552;2023-08-31T12:28:47;92082.56;;;9.79;100.00
17521;BME280;8878;-33.370;-70.552;2023-08-31T12:31:16;92087.84;;;10.00;100.00
17521;BME280;8878;-33.370;-70.552;2023-08-31T12:33:48;92092.34;;;10.19;100.00
17521;BME280;8878;-33.370;-70.552;2023-08-31T12:36:17;92095.53;;;10.37;100.00
17521;BME280;8878;-33.370;-70.552;2023-08-31T12:38:47;92097.84;;;10.53;100.00
17521;BME280;8878;-33.370;-70.552;2023-08-31T12:41:18;92105.75;;;10.69;100.00
17521;BME280;8878;-33.370;-70.552;2023-08-31T12:43:48;92117.56;;;10.91;100.00
17521;BME280;8878;-33.370;-70.552;2023-08-31T12:46:17;92129.16;;;11.06;100.00
17521;BME280;8878;-33.370;-70.552;2023-08-31T12:48:48;92126.50;;;11.11;100.00
17521;BME280;8878;-33.370;-70.552;2023-08-31T12:51:19;92139.41;;;11.22;100.00
17521;BME280;8878;-33.370;-70.552;2023-08-31T12:53:49;92131.69;;;11.31;100.00
17521;BME280;8878;-33.370;-70.552;2023-08-31T12:56:18;92133.81;;;11.34;100.00